Time;durP1;ratioP1;P1;durP2;ratioP2;P2;SDS_P1;SDS_P2;PMS_P1;PMS_P2;Temp;Humidity;BMP_temperature;BMP_pressure;BME280_temperature;BME280_humidity;BME280_pressure;Samples;Min_cycle;Max_cycle;Signal;HPM_P1;HPM_P2
2022/06/04 00:00:08;;;;;;;3.78;1.48;;;;;;;20.24;42.31;101725.84;5081117;28;20053;-62
2022/06/04 00:02:38;;;;;;;4.35;1.23;;;;;;;20.22;42.49;101729.94;5081951;28;20056;-63
2022/06/04 00:05:09;;;;;;;2.50;1.48;;;;;;;20.20;42.29;101732.91;5076471;28;20072;-62
2022/06/04 00:07:38;;;;;;;3.35;1.35;;;;;;;20.14;42.26;101721.16;5083849;28;20056;-63
2022/06/04 00:15:42;;;;;;;2.75;1.27;;;;;;;20.05;42.54;101721.91;5081134;28;20057;-61
2022/06/04 00:18:10;;;;;;;3.33;1.20;;;;;;;20.06;42.35;101723.56;5081954;28;20052;-61
2022/06/04 00:20:37;;;;;;;3.80;1.20;;;;;;;20.04;42.48;101725.72;5084608;28;20052;-61
2022/06/04 00:23:07;;;;;;;5.95;1.40;;;;;;;20.01;42.21;101723.53;5082611;28;20080;-61
2022/06/04 00:25:38;;;;;;;2.78;1.35;;;;;;;19.98;42.41;101726.78;5082332;28;20072;-61
2022/06/04 00:28:08;;;;;;;1.55;1.08;;;;;;;19.95;42.36;101730.84;5076113;28;20049;-61
2022/06/04 00:30:36;;;;;;;5.60;1.30;;;;;;;19.94;42.33;101731.13;5077365;28;20080;-61
2022/06/04 00:33:05;;;;;;;1.80;1.48;;;;;;;19.92;42.54;101733.28;5079222;28;20072;-61
2022/06/04 00:35:34;;;;;;;2.92;1.40;;;;;;;19.90;42.22;101741.75;5078292;28;21113;-61
2022/06/04 00:38:02;;;;;;;2.33;1.30;;;;;;;19.88;42.27;101722.09;5073794;28;20041;-61
2022/06/04 00:40:37;;;;;;;6.57;1.48;;;;;;;19.84;42.51;101704.59;5081015;28;20064;-61
2022/06/04 00:43:06;;;;;;;3.53;1.33;;;;;;;19.83;42.20;101695.59;5078998;28;20080;-61
2022/06/04 00:46:16;;;;;;;1.30;1.10;;;;;;;19.81;42.24;101711.41;5078054;28;20044;-61
2022/06/04 00:48:44;;;;;;;6.55;1.48;;;;;;;19.78;42.23;101716.56;5067402;28;20051;-61
2022/06/04 00:51:13;;;;;;;2.58;1.40;;;;;;;19.78;42.34;101731.00;5080401;28;20044;-61
2022/06/04 00:53:42;;;;;;;1.95;1.45;;;;;;;19.75;42.33;101725.25;5075862;28;20064;-63
2022/06/04 00:56:22;;;;;;;5.35;1.50;;;;;;;19.72;42.43;101740.25;5077689;28;20087;-61
2022/06/04 00:59:06;;;;;;;2.05;1.45;;;;;;;19.69;42.37;101748.94;5077360;28;20090;-61
2022/06/04 01:01:39;;;;;;;4.90;1.48;;;;;;;19.67;42.25;101759.28;5076674;28;20079;-62
2022/06/04 01:04:47;;;;;;;3.75;1.63;;;;;;;19.64;42.32;101757.09;5083127;28;20048;-62
2022/06/04 01:07:19;;;;;;;4.13;1.40;;;;;;;19.61;42.23;101754.06;5069419;28;20100;-62
2022/06/04 01:10:01;;;;;;;3.38;1.45;;;;;;;19.60;42.21;101763.31;5083534;28;20059;-61
2022/06/04 01:12:46;;;;;;;2.00;1.20;;;;;;;19.58;42.13;101754.56;5073514;28;20045;-62
2022/06/04 01:15:29;;;;;;;1.92;1.15;;;;;;;19.56;42.44;101765.75;5076068;28;20098;-61
2022/06/04 01:18:09;;;;;;;2.90;1.35;;;;;;;19.54;42.07;101765.19;5077641;28;20076;-62
2022/06/04 01:20:45;;;;;;;5.10;1.33;;;;;;;19.53;42.28;101773.63;5083269;28;20056;-62
2022/06/04 01:23:49;;;;;;;2.85;1.58;;;;;;;19.52;42.26;101777.44;5073855;28;20052;-62
2022/06/04 01:26:47;;;;;;;4.72;1.83;;;;;;;19.52;42.35;101769.25;5080945;28;20055;-61
2022/06/04 01:29:17;;;;;;;3.25;1.40;;;;;;;19.50;42.27;101769.47;5078817;28;20063;-62
2022/06/04 01:31:49;;;;;;;2.05;1.15;;;;;;;19.46;42.01;101771.06;5079101;28;20135;-61
2022/06/04 01:34:23;;;;;;;1.25;1.13;;;;;;;19.45;42.23;101772.97;5081574;28;20044;-61
2022/06/04 01:36:55;;;;;;;4.18;1.13;;;;;;;19.46;42.24;101787.44;5082469;28;20075;-61
2022/06/04 01:39:25;;;;;;;7.20;1.70;;;;;;;19.44;42.27;101789.59;5078502;28;20052;-61
2022/06/04 01:41:56;;;;;;;2.70;1.33;;;;;;;19.43;42.33;101791.50;5077738;28;20079;-61
2022/06/04 01:44:30;;;;;;;3.53;1.50;;;;;;;19.43;42.36;101798.84;5081709;28;20588;-61
2022/06/04 01:47:02;;;;;;;2.42;1.40;;;;;;;19.41;42.24;101801.84;5075614;28;20088;-61
2022/06/04 01:49:37;;;;;;;1.83;1.20;;;;;;;19.40;42.27;101802.91;5083198;28;20048;-62
2022/06/04 01:52:11;;;;;;;2.83;1.20;;;;;;;19.39;42.14;101808.63;5070210;28;20048;-61
2022/06/04 01:54:46;;;;;;;1.92;1.52;;;;;;;19.35;42.27;101804.78;5081219;28;20048;-61
2022/06/04 01:57:19;;;;;;;1.90;1.15;;;;;;;19.32;42.12;101806.09;5079130;28;20072;-61
2022/06/04 01:59:52;;;;;;;3.55;1.50;;;;;;;19.31;42.30;101809.09;5080025;28;20123;-61
2022/06/04 02:02:25;;;;;;;3.70;1.65;;;;;;;19.30;42.12;101813.72;5079482;28;20406;-61
2022/06/04 02:04:58;;;;;;;2.75;1.33;;;;;;;19.27;42.43;101814.22;5072642;28;20079;-61
2022/06/04 02:07:33;;;;;;;1.38;0.90;;;;;;;19.28;42.45;101812.31;5082402;28;20063;-61
2022/06/04 02:10:08;;;;;;;4.15;1.42;;;;;;;19.27;42.31;101813.41;5082421;28;20064;-61
2022/06/04 02:12:38;;;;;;;2.05;1.42;;;;;;;19.25;42.30;101810.13;5071635;28;20053;-61
2022/06/04 02:15:08;;;;;;;2.53;1.42;;;;;;;19.25;42.30;101821.00;5082797;28;20068;-61
2022/06/04 02:17:40;;;;;;;2.80;1.20;;;;;;;19.20;42.19;101810.88;5080418;28;20433;-61
2022/06/04 02:20:09;;;;;;;3.13;1.60;;;;;;;19.19;42.31;101806.50;5078005;28;20049;-61
2022/06/04 02:22:37;;;;;;;2.55;1.30;;;;;;;19.18;42.35;101810.31;5080641;28;20044;-61
2022/06/04 02:25:10;;;;;;;2.72;1.83;;;;;;;19.15;42.51;101808.09;5075673;28;20049;-61
2022/06/04 02:27:40;;;;;;;4.32;1.50;;;;;;;19.11;42.30;101807.78;5083369;28;20044;-61
2022/06/04 02:30:10;;;;;;;3.42;1.30;;;;;;;19.08;42.53;101802.03;5073026;28;20048;-61
2022/06/04 02:32:49;;;;;;;3.50;1.42;;;;;;;19.07;42.32;101800.38;5080338;28;20529;-61
2022/06/04 02:35:24;;;;;;;2.67;1.50;;;;;;;19.03;42.33;101783.75;5075820;28;20045;-61
2022/06/04 02:37:59;;;;;;;5.43;1.58;;;;;;;19.01;42.22;101793.25;5082753;28;20087;-61
2022/06/04 02:40:32;;;;;;;2.85;1.45;;;;;;;18.99;42.64;101776.34;5080620;28;20076;-61
2022/06/04 02:43:10;;;;;;;2.35;1.33;;;;;;;18.98;42.50;101780.13;5074182;28;20059;-61
2022/06/04 02:45:41;;;;;;;6.90;1.80;;;;;;;18.94;42.80;101779.81;5079715;28;20159;-61
2022/06/04 02:48:15;;;;;;;2.53;1.60;;;;;;;18.92;42.74;101778.44;5076858;28;20068;-61
2022/06/04 02:50:47;;;;;;;4.50;2.20;;;;;;;18.90;42.91;101759.63;5081283;28;20072;-61
2022/06/04 02:53:16;;;;;;;2.17;1.35;;;;;;;18.87;42.81;101754.69;5078797;28;20044;-61
2022/06/04 02:55:49;;;;;;;4.13;1.67;;;;;;;18.85;42.95;101751.38;5087004;28;20079;-61
2022/06/04 02:58:21;;;;;;;5.63;1.75;;;;;;;18.84;42.84;101749.75;5080592;28;20040;-61
2022/06/04 03:00:54;;;;;;;3.17;1.88;;;;;;;18.81;43.07;101744.81;5077816;28;20075;-60
2022/06/04 03:03:23;;;;;;;2.83;1.38;;;;;;;18.81;43.19;101740.19;5084568;28;20048;-61
2022/06/04 03:05:53;;;;;;;3.85;1.48;;;;;;;18.81;43.19;101742.09;5083814;28;20059;-60
2022/06/04 03:08:22;;;;;;;4.70;1.80;;;;;;;18.80;43.02;101757.59;5085208;28;20162;-61
2022/06/04 03:10:50;;;;;;;4.72;1.77;;;;;;;18.75;43.01;101745.81;5084055;28;20091;-61
2022/06/04 03:13:20;;;;;;;5.30;1.90;;;;;;;18.75;43.27;101745.81;5082642;28;20091;-61
2022/06/04 03:15:48;;;;;;;4.38;2.28;;;;;;;18.72;43.26;101740.88;5081521;28;20048;-61
2022/06/04 03:18:17;;;;;;;2.67;1.63;;;;;;;18.71;43.19;101737.34;5089813;28;20112;-61
2022/06/04 03:20:45;;;;;;;4.63;1.67;;;;;;;18.73;43.29;101737.09;5085178;28;20053;-61
2022/06/04 03:23:15;;;;;;;2.53;1.48;;;;;;;18.70;43.16;101740.31;5083271;28;20040;-60
2022/06/04 03:25:43;;;;;;;3.10;1.52;;;;;;;18.68;43.33;101740.56;5087825;28;20056;-62
2022/06/04 03:28:10;;;;;;;4.55;1.85;;;;;;;18.66;43.29;101736.47;5081969;28;20116;-60
2022/06/04 03:30:40;;;;;;;4.90;1.50;;;;;;;18.65;43.57;101737.53;5085571;28;20112;-60
2022/06/04 03:33:08;;;;;;;5.05;1.70;;;;;;;18.62;43.35;101746.22;5080755;28;20067;-60
2022/06/04 03:35:36;;;;;;;4.35;2.08;;;;;;;18.60;43.84;101748.34;5082966;28;20053;-60
2022/06/04 03:38:04;;;;;;;5.80;2.05;;;;;;;18.57;43.57;101749.66;5085967;28;20064;-61
2022/06/04 03:40:32;;;;;;;3.78;2.42;;;;;;;18.54;43.74;101752.88;5078715;28;20083;-60
2022/06/04 03:42:59;;;;;;;4.90;2.03;;;;;;;18.52;43.81;101755.88;5082091;28;20494;-60
2022/06/04 03:45:27;;;;;;;8.40;2.47;;;;;;;18.48;43.91;101748.44;5082238;28;20080;-63
2022/06/04 03:47:57;;;;;;;3.70;1.67;;;;;;;18.51;43.93;101750.66;5074014;28;20061;-60
2022/06/04 03:50:25;;;;;;;3.78;1.85;;;;;;;18.51;43.77;101759.66;5082794;28;20052;-60
2022/06/04 03:52:54;;;;;;;4.20;1.77;;;;;;;18.48;44.12;101756.63;5083076;28;20048;-63
2022/06/04 03:55:25;;;;;;;3.15;1.77;;;;;;;18.44;44.28;101763.63;5085124;28;20355;-62
2022/06/04 03:57:53;;;;;;;6.78;1.73;;;;;;;18.45;44.15;101770.72;5080389;28;20036;-62
2022/06/04 04:00:24;;;;;;;4.47;1.88;;;;;;;18.39;44.51;101769.00;5080741;28;20091;-62
2022/06/04 04:02:55;;;;;;;3.47;1.75;;;;;;;18.38;44.46;101770.09;5081974;28;20049;-62
2022/06/04 04:05:26;;;;;;;4.60;1.83;;;;;;;18.36;44.45;101773.06;5083746;28;20151;-62
2022/06/04 04:07:55;;;;;;;3.65;1.83;;;;;;;18.35;44.63;101779.59;5079945;28;20079;-62
2022/06/04 04:10:24;;;;;;;4.18;2.30;;;;;;;18.33;44.67;101778.19;5081137;28;20091;-60
2022/06/04 04:12:52;;;;;;;3.08;1.88;;;;;;;18.31;44.76;101788.50;5081838;28;20079;-60
2022/06/04 04:15:20;;;;;;;4.68;2.22;;;;;;;18.29;44.97;101782.47;5078119;28;20091;-60
2022/06/04 04:17:48;;;;;;;5.47;2.20;;;;;;;18.27;44.90;101784.63;5074369;28;20076;-60
2022/06/04 04:20:19;;;;;;;5.07;2.25;;;;;;;18.25;45.12;101778.63;5079365;28;20083;-60
2022/06/04 04:22:49;;;;;;;5.40;2.20;;;;;;;18.20;45.15;101774.75;5084748;28;20048;-61
2022/06/04 04:25:19;;;;;;;5.63;2.67;;;;;;;18.20;45.24;101792.97;5084878;28;20048;-61
2022/06/04 04:27:47;;;;;;;5.45;2.10;;;;;;;18.18;45.47;101786.94;5079714;28;20116;-61
2022/06/04 04:30:18;;;;;;;5.78;2.92;;;;;;;18.17;45.63;101794.28;5084522;28;20056;-60
2022/06/04 04:32:46;;;;;;;4.65;1.80;;;;;;;18.17;45.41;101796.19;5079492;28;20048;-60
2022/06/04 04:35:16;;;;;;;4.70;2.00;;;;;;;18.14;45.36;101804.84;5078122;28;20600;-62
2022/06/04 04:37:43;;;;;;;5.68;2.03;;;;;;;18.14;45.69;101802.94;5081269;28;20044;-62
2022/06/04 04:40:14;;;;;;;6.00;2.30;;;;;;;18.14;45.63;101804.84;5079980;28;20052;-62
2022/06/04 04:42:42;;;;;;;5.70;2.20;;;;;;;18.03;45.66;101800.31;5081915;28;20045;-62
2022/06/04 04:45:10;;;;;;;5.25;2.20;;;;;;;18.10;45.71;101818.13;5082043;28;20052;-63
2022/06/04 04:47:41;;;;;;;3.28;1.88;;;;;;;18.08;45.82;101827.59;5081172;28;20084;-62
2022/06/04 04:50:13;;;;;;;6.53;2.78;;;;;;;18.05;46.12;101817.22;5075689;28;20044;-62
2022/06/04 04:52:41;;;;;;;4.47;2.08;;;;;;;18.03;45.93;101824.81;5086853;28;20446;-62
2022/06/04 04:55:09;;;;;;;6.07;2.38;;;;;;;18.04;46.19;101821.84;5085271;28;20074;-62
2022/06/04 04:57:38;;;;;;;5.28;2.50;;;;;;;18.04;46.14;101810.13;5080308;28;20040;-62
2022/06/04 05:00:09;;;;;;;6.72;2.28;;;;;;;18.04;46.14;101821.00;5078395;28;20040;-61
2022/06/04 05:02:36;;;;;;;5.20;2.33;;;;;;;18.04;46.26;101815.56;5078671;28;20048;-63
2022/06/04 05:05:05;;;;;;;4.25;2.17;;;;;;;18.02;46.09;101812.28;5074994;28;20063;-61
2022/06/04 05:07:34;;;;;;;5.53;2.42;;;;;;;18.00;46.45;101823.41;5083975;28;20045;-65
2022/06/04 05:10:01;;;;;;;4.72;2.08;;;;;;;17.98;46.59;101825.53;4721731;28;10000025;-62
2022/06/04 05:12:30;;;;;;;4.35;2.35;;;;;;;17.98;46.57;101819.28;5074941;28;20084;-63
2022/06/04 05:14:59;;;;;;;4.90;2.60;;;;;;;17.98;46.75;101825.53;5073925;28;20055;-70
2022/06/04 05:17:26;;;;;;;4.05;2.58;;;;;;;17.98;46.59;101830.97;5080858;28;20075;-63
2022/06/04 05:19:54;;;;;;;4.32;2.45;;;;;;;17.98;46.59;101828.25;5081123;28;20115;-64
2022/06/04 05:22:22;;;;;;;5.07;2.00;;;;;;;17.98;46.50;101830.16;5084455;28;20364;-64
2022/06/04 05:24:50;;;;;;;4.70;2.20;;;;;;;17.98;46.67;101830.97;5074971;28;20300;-63
2022/06/04 05:27:18;;;;;;;4.05;2.35;;;;;;;17.99;46.68;101834.53;5079175;28;20861;-63
2022/06/04 05:29:45;;;;;;;6.35;2.45;;;;;;;17.96;46.72;101835.03;5079719;28;20084;-63
2022/06/04 05:32:14;;;;;;;4.57;2.67;;;;;;;17.97;46.78;101840.22;5085010;28;20063;-62
2022/06/04 05:34:42;;;;;;;7.57;2.20;;;;;;;17.96;46.47;101849.44;5081215;28;20049;-62
2022/06/04 05:37:10;;;;;;;8.60;2.92;;;;;;;17.89;47.57;101857.75;5070820;28;20119;-62
2022/06/04 05:39:38;;;;;;;7.05;3.00;;;;;;;17.70;48.33;101831.88;5076931;28;20358;-62
2022/06/04 05:42:07;;;;;;;9.02;3.35;;;;;;;17.74;48.74;101848.50;5075144;28;20052;-62
2022/06/04 05:44:35;;;;;;;6.80;3.00;;;;;;;17.73;48.47;101849.59;5074728;28;20048;-63
2022/06/04 05:47:04;;;;;;;8.02;3.60;;;;;;;17.74;48.59;101851.22;5077547;28;20581;-60
2022/06/04 05:49:33;;;;;;;11.38;3.13;;;;;;;17.74;48.33;101849.34;5069116;28;20211;-60
2022/06/04 05:52:01;;;;;;;6.88;3.40;;;;;;;17.78;48.28;101852.41;5080192;28;20087;-61
2022/06/04 05:54:29;;;;;;;6.78;3.08;;;;;;;17.77;48.27;101859.72;5078169;28;20104;-60
2022/06/04 05:56:57;;;;;;;5.80;2.60;;;;;;;17.79;48.24;101859.47;5079647;28;20088;-60
2022/06/04 05:59:24;;;;;;;11.75;3.17;;;;;;;17.78;48.10;101855.13;5072891;28;20103;-60
2022/06/04 06:01:53;;;;;;;8.70;2.83;;;;;;;17.75;48.27;101852.88;5076962;28;20049;-62
2022/06/04 06:04:25;;;;;;;7.03;2.88;;;;;;;17.73;48.11;101858.56;5077250;28;21566;-61
2022/06/04 06:06:58;;;;;;;7.93;2.72;;;;;;;17.74;48.41;101857.50;5080095;28;20052;-61
2022/06/04 06:09:27;;;;;;;6.28;2.58;;;;;;;17.72;48.32;101847.94;5077406;28;20131;-61
2022/06/04 06:11:55;;;;;;;7.03;3.03;;;;;;;17.73;48.39;101849.59;5080093;28;20083;-62
2022/06/04 06:14:24;;;;;;;4.78;2.85;;;;;;;17.72;48.48;101846.03;5077257;28;20120;-59
2022/06/04 06:16:53;;;;;;;5.88;2.63;;;;;;;17.71;48.17;101849.00;5070529;28;20079;-59
2022/06/04 06:19:23;;;;;;;5.22;2.70;;;;;;;17.73;48.45;101852.31;5065798;28;20056;-59
2022/06/04 06:21:51;;;;;;;11.02;3.13;;;;;;;17.73;48.46;101858.56;5073707;28;20060;-59
2022/06/04 06:24:22;;;;;;;8.57;2.72;;;;;;;17.74;48.46;101864.81;5077892;28;20095;-62
2022/06/04 06:26:53;;;;;;;12.98;2.92;;;;;;;17.72;48.56;101861.53;5071149;28;20060;-61
2022/06/04 06:29:23;;;;;;;5.28;2.67;;;;;;;17.75;48.39;101869.19;5078411;28;20055;-61
2022/06/04 06:31:51;;;;;;;9.65;2.75;;;;;;;17.76;48.38;101868.13;5073801;28;20146;-61
2022/06/04 06:34:19;;;;;;;7.63;2.92;;;;;;;17.78;48.26;101869.53;5084006;28;20059;-60
2022/06/04 06:36:48;;;;;;;8.18;2.35;;;;;;;17.80;48.34;101866.56;5079750;28;20061;-61
2022/06/04 06:39:15;;;;;;;4.50;3.00;;;;;;;17.79;48.33;101863.03;5082441;28;20052;-61
2022/06/04 06:41:46;;;;;;;8.57;3.08;;;;;;;17.80;48.61;101859.25;5082275;28;20076;-60
2022/06/04 06:44:14;;;;;;;7.07;2.70;;;;;;;17.78;48.42;101855.94;5079006;28;20052;-60
2022/06/04 06:46:44;;;;;;;10.38;2.60;;;;;;;17.84;48.44;101878.59;5071467;28;20044;-61
2022/06/04 06:49:17;;;;;;;7.88;2.92;;;;;;;17.83;48.40;101880.50;5081030;28;20084;-61
2022/06/04 06:51:47;;;;;;;7.88;3.08;;;;;;;17.83;48.43;101893.28;5077585;28;20049;-60
2022/06/04 06:54:15;;;;;;;6.45;2.90;;;;;;;17.80;48.86;101886.44;5074588;28;20464;-60
2022/06/04 06:56:47;;;;;;;5.57;3.28;;;;;;;17.81;48.84;101892.69;5084834;28;20084;-61
2022/06/04 06:59:15;;;;;;;6.60;3.28;;;;;;;17.79;48.81;101884.78;5076948;28;20075;-60
2022/06/04 07:01:43;;;;;;;7.38;2.97;;;;;;;17.78;48.83;101885.03;5080600;28;20075;-61
2022/06/04 07:04:11;;;;;;;5.47;3.00;;;;;;;17.77;48.86;101884.19;5077842;28;20059;-60
2022/06/04 07:06:41;;;;;;;8.73;3.42;;;;;;;17.77;49.00;101886.91;5083205;28;20493;-60
2022/06/04 07:09:13;;;;;;;7.00;3.15;;;;;;;17.77;48.87;101886.09;5082441;28;20098;-61
2022/06/04 07:11:41;;;;;;;7.30;3.00;;;;;;;17.78;49.01;101885.03;5077466;28;20092;-61
2022/06/04 07:14:10;;;;;;;6.93;2.63;;;;;;;17.78;48.93;101864.09;5081803;28;20060;-61
2022/06/04 07:16:38;;;;;;;7.40;3.60;;;;;;;17.79;49.03;101881.25;4725333;28;9999757;-62
2022/06/04 07:19:06;;;;;;;5.32;2.95;;;;;;;17.79;49.19;101883.94;5079703;28;20063;-62
2022/06/04 07:21:35;;;;;;;7.95;3.15;;;;;;;17.78;49.04;101883.13;5081122;28;20044;-61
2022/06/04 07:24:03;;;;;;;5.80;3.13;;;;;;;17.78;49.11;101887.75;5076369;28;20113;-61
2022/06/04 07:26:30;;;;;;;6.82;3.13;;;;;;;17.77;49.17;101884.19;5085200;28;20424;-61
2022/06/04 07:28:58;;;;;;;5.68;2.83;;;;;;;17.77;48.92;101889.63;5085144;28;20048;-62
2022/06/04 07:31:29;;;;;;;6.03;2.90;;;;;;;17.77;49.36;101891.53;5083280;28;20477;-66
2022/06/04 07:33:58;;;;;;;5.57;3.00;;;;;;;17.77;49.25;101895.06;5084611;28;20048;-59
2022/06/04 07:36:28;;;;;;;6.47;2.85;;;;;;;17.79;49.03;101897.56;5077124;28;20311;-59
2022/06/04 07:38:56;;;;;;;7.82;2.78;;;;;;;17.82;48.93;101899.78;5082779;28;20049;-60
2022/06/04 07:41:26;;;;;;;6.32;2.88;;;;;;;17.83;48.98;101904.97;5081381;28;20043;-60
2022/06/04 07:43:54;;;;;;;3.47;2.25;;;;;;;17.84;48.95;101909.34;5081029;28;20622;-59
2022/06/04 07:46:23;;;;;;;7.57;2.92;;;;;;;17.85;48.98;101910.16;5089051;28;20146;-59
2022/06/04 07:48:55;;;;;;;7.57;2.97;;;;;;;17.86;49.33;101914.53;5075074;28;20051;-57
2022/06/04 07:51:23;;;;;;;5.25;2.95;;;;;;;17.86;49.10;101909.09;5073384;28;20087;-61
2022/06/04 07:53:51;;;;;;;5.63;3.20;;;;;;;17.87;49.00;101895.25;5070214;28;20080;-62
2022/06/04 07:56:20;;;;;;;11.90;3.38;;;;;;;17.84;49.55;101879.44;5077068;28;20092;-58
2022/06/04 07:58:48;;;;;;;5.22;2.70;;;;;;;17.86;49.20;101890.06;5075826;28;20125;-59
2022/06/04 08:01:18;;;;;;;7.32;3.05;;;;;;;17.82;49.53;101884.28;5086855;28;20041;-64
2022/06/04 08:03:47;;;;;;;7.95;2.95;;;;;;;17.94;48.99;101894.28;5085498;28;20079;-59
2022/06/04 08:06:18;;;;;;;8.18;3.15;;;;;;;17.94;49.27;101886.13;5081996;28;20108;-59
2022/06/04 08:08:47;;;;;;;7.80;3.70;;;;;;;17.94;49.23;101894.28;5085183;28;20078;-59
2022/06/04 08:11:35;;;;;;;5.25;2.83;;;;;;;17.93;49.26;101892.63;5085446;28;20049;-59
2022/06/04 08:14:13;;;;;;;7.07;3.83;;;;;;;17.91;49.37;101892.06;5082512;28;20493;-59
2022/06/04 08:16:43;;;;;;;6.78;3.25;;;;;;;17.88;49.32;101891.47;5078647;28;20128;-59
2022/06/04 08:19:12;;;;;;;9.98;3.72;;;;;;;17.87;49.54;101891.72;5085173;28;20114;-58
2022/06/04 08:21:42;;;;;;;9.52;3.20;;;;;;;17.86;49.40;101888.16;5076103;28;20044;-59
2022/06/04 08:24:11;;;;;;;7.47;3.22;;;;;;;17.86;49.55;101888.16;5085470;28;20056;-59
2022/06/04 08:26:41;;;;;;;6.93;3.28;;;;;;;17.85;49.46;101888.41;5083458;28;20073;-59
2022/06/04 08:29:09;;;;;;;5.95;3.63;;;;;;;17.84;49.65;101886.78;5084658;28;20072;-58
2022/06/04 08:31:37;;;;;;;7.38;4.00;;;;;;;17.82;49.69;101900.59;5077195;28;20072;-59
2022/06/04 08:34:06;;;;;;;7.63;3.92;;;;;;;17.81;49.77;101893.53;5083788;28;20056;-59
2022/06/04 08:36:34;;;;;;;5.97;3.50;;;;;;;17.80;49.90;101899.19;5076966;28;20048;-59
2022/06/04 08:39:04;;;;;;;6.65;3.67;;;;;;;17.81;49.84;101900.84;5083959;28;20166;-59
2022/06/04 08:41:55;;;;;;;8.75;4.03;;;;;;;17.78;49.89;101902.16;5084803;28;20044;-58
2022/06/04 08:44:29;;;;;;;5.63;3.72;;;;;;;17.76;49.82;101889.88;5080021;28;20064;-59
2022/06/04 08:47:00;;;;;;;7.85;4.00;;;;;;;17.80;49.98;101902.75;5077273;28;20084;-59
2022/06/04 08:49:32;;;;;;;7.35;3.97;;;;;;;17.79;50.18;101894.84;5081575;28;20080;-59
2022/06/04 08:52:02;;;;;;;9.10;3.80;;;;;;;17.79;50.23;101903.81;5078710;28;20083;-59
2022/06/04 08:57:33;;;;;;;;;;;;;;;17.80;50.12;101900.03;5083896;28;20052;-59
2022/06/04 09:00:08;;;;;;;8.73;4.10;;;;;;;17.78;50.07;101888.56;5083927;28;19946;-60
2022/06/04 09:03:01;;;;;;;6.88;3.67;;;;;;;17.81;50.22;101901.69;5083093;28;20044;-59
2022/06/04 09:05:48;;;;;;;6.80;3.40;;;;;;;17.85;50.00;101896.56;5068194;28;20053;-59
2022/06/04 09:08:22;;;;;;;13.35;4.40;;;;;;;17.85;50.07;101904.72;5076198;28;20080;-59
2022/06/04 09:10:54;;;;;;;7.85;3.80;;;;;;;17.84;50.39;101906.63;5082268;28;20079;-59
2022/06/04 09:13:27;;;;;;;6.78;3.47;;;;;;;17.86;50.31;101906.38;5084471;28;20044;-59
2022/06/04 09:16:00;;;;;;;6.60;4.00;;;;;;;17.87;50.31;101918.91;5081578;28;20057;-59
2022/06/04 09:18:32;;;;;;;10.82;3.45;;;;;;;17.89;50.29;101914.06;5083964;28;20052;-59
2022/06/04 09:21:02;;;;;;;6.65;3.95;;;;;;;17.90;50.32;101912.97;5082824;28;20055;-59
2022/06/04 09:23:42;;;;;;;9.55;4.90;;;;;;;17.92;50.46;101910.03;5082310;28;20527;-59
2022/06/04 09:26:24;;;;;;;9.57;4.20;;;;;;;17.94;50.53;101914.16;5083913;28;20056;-59
2022/06/04 09:29:06;;;;;;;7.63;4.20;;;;;;;17.94;50.46;101913.31;5077755;28;20056;-59
2022/06/04 09:31:41;;;;;;;6.68;3.60;;;;;;;17.97;50.76;101916.38;5067782;28;20072;-59
2022/06/04 09:34:14;;;;;;;5.80;3.55;;;;;;;18.00;50.46;101909.63;5075736;28;20104;-59
2022/06/04 09:36:45;;;;;;;5.60;3.17;;;;;;;18.00;50.36;101901.47;5079134;28;20123;-59
2022/06/04 09:39:22;;;;;;;5.95;3.17;;;;;;;18.05;50.35;101909.72;5077490;28;20048;-59
2022/06/04 09:41:52;;;;;;;;;;;;;;;18.08;50.37;101912.75;5083538;28;20434;-59
2022/06/04 09:44:19;;;;;;;9.73;3.88;;;;;;;18.10;50.41;101913.34;5083124;28;19987;-59
2022/06/04 09:46:52;;;;;;;6.15;3.67;;;;;;;18.11;50.62;101909.56;5082482;28;20048;-59
2022/06/04 09:49:30;;;;;;;6.72;4.00;;;;;;;18.12;50.67;101915.81;5078082;28;20110;-59
2022/06/04 09:51:58;;;;;;;8.07;4.03;;;;;;;18.14;50.89;101927.28;5080051;28;20120;-59
2022/06/04 09:54:32;;;;;;;5.45;3.25;;;;;;;18.09;50.48;101917.13;5084034;28;20052;-59
2022/06/04 09:57:04;;;;;;;6.38;3.35;;;;;;;18.16;50.73;101922.41;5082231;28;20078;-59
2022/06/04 09:59:34;;;;;;;7.60;3.60;;;;;;;18.22;50.71;101926.88;5076081;28;20083;-59
2022/06/04 10:02:17;;;;;;;7.22;4.22;;;;;;;18.25;50.93;101917.41;5081861;28;20041;-59
2022/06/04 10:04:47;;;;;;;10.23;4.32;;;;;;;18.28;51.05;101919.63;5081415;28;20150;-59
2022/06/04 10:07:17;;;;;;;12.27;4.53;;;;;;;18.29;51.06;101916.66;5084080;28;20041;-59
2022/06/04 10:09:57;;;;;;;6.53;4.32;;;;;;;18.30;51.29;101923.75;5084784;28;20054;-59
2022/06/04 10:15:24;;;;;;;7.63;3.70;;;;;;;18.36;51.10;101921.94;5072005;28;20045;-59
2022/06/04 10:18:00;;;;;;;6.75;4.03;;;;;;;18.36;51.39;101920.03;5074589;28;20049;-59
2022/06/04 10:20:28;;;;;;;12.80;4.47;;;;;;;18.38;51.15;101922.50;5075338;28;20059;-59
2022/06/04 10:22:56;;;;;;;6.97;4.57;;;;;;;18.40;51.45;101928.53;5086619;28;20076;-59
2022/06/04 10:25:35;;;;;;;7.45;4.85;;;;;;;18.43;51.36;101917.97;5074369;28;20151;-58
2022/06/04 10:28:17;;;;;;;9.02;5.82;;;;;;;18.44;51.83;101924.25;5085727;28;20048;-59
2022/06/04 10:30:56;;;;;;;8.45;3.92;;;;;;;18.45;51.40;101918.56;5071961;28;20104;-59
2022/06/04 10:33:38;;;;;;;9.45;4.45;;;;;;;18.50;51.35;101923.25;5080841;28;20080;-58
2022/06/04 10:36:21;;;;;;;7.30;3.83;;;;;;;18.53;51.57;101925.47;5080550;28;20064;-59
2022/06/04 10:39:01;;;;;;;9.77;4.40;;;;;;;18.55;51.72;101926.06;5080759;28;20521;-59
2022/06/04 10:41:37;;;;;;;5.47;4.10;;;;;;;18.57;51.70;101923.91;5087253;28;20040;-59
2022/06/04 10:44:32;;;;;;;7.50;5.10;;;;;;;18.62;51.51;101926.75;5082075;28;20045;-59
2022/06/04 10:47:09;;;;;;;7.60;4.60;;;;;;;18.65;51.60;101922.69;5071345;28;20100;-61
2022/06/04 10:49:53;;;;;;;11.73;4.25;;;;;;;18.69;51.62;101923.84;5074335;28;20443;-61
2022/06/04 10:52:28;;;;;;;7.60;5.10;;;;;;;18.73;51.96;101923.09;5081809;28;20063;-59
2022/06/04 10:55:06;;;;;;;8.57;4.90;;;;;;;18.78;51.77;101922.34;5074414;28;20044;-58
2022/06/04 10:57:39;;;;;;;7.85;4.78;;;;;;;18.81;51.63;101930.03;5082202;28;20041;-59
2022/06/04 11:00:14;;;;;;;8.30;5.00;;;;;;;18.83;51.74;101927.88;5086288;28;20099;-59
2022/06/04 11:02:49;;;;;;;9.07;4.68;;;;;;;18.84;51.78;101930.34;5085876;28;20371;-60
2022/06/04 11:05:22;;;;;;;9.25;5.70;;;;;;;18.88;51.81;101927.13;5083175;28;20048;-59
2022/06/04 11:07:54;;;;;;;8.68;5.57;;;;;;;18.89;51.69;101926.03;5085382;28;20083;-59
2022/06/04 11:10:25;;;;;;;8.13;4.68;;;;;;;18.95;51.73;101925.88;5086529;28;20080;-59
2022/06/04 11:13:04;;;;;;;9.93;5.03;;;;;;;19.01;51.53;101919.41;5078409;28;20148;-59
2022/06/04 11:15:38;;;;;;;8.45;4.47;;;;;;;19.07;51.59;101915.63;5084196;28;20056;-59
2022/06/04 11:18:14;;;;;;;8.77;4.25;;;;;;;19.15;51.68;101928.00;5085644;28;20063;-59
2022/06/04 11:20:51;;;;;;;8.35;5.32;;;;;;;19.20;51.39;101933.53;5073731;28;20513;-59
2022/06/04 11:23:34;;;;;;;8.65;5.15;;;;;;;19.21;51.64;101920.72;5085600;28;20044;-59
2022/06/04 11:26:06;;;;;;;9.20;5.18;;;;;;;19.27;51.52;101927.88;5086341;28;20052;-59
2022/06/04 11:28:33;;;;;;;11.00;5.22;;;;;;;19.30;51.32;101924.66;5086449;28;20139;-59
2022/06/04 11:31:19;;;;;;;7.45;4.75;;;;;;;19.33;51.49;101922.25;5080600;28;20068;-59
2022/06/04 11:34:02;;;;;;;8.15;4.95;;;;;;;19.38;51.24;101926.94;5084961;28;20052;-59
2022/06/04 11:36:38;;;;;;;9.90;5.30;;;;;;;19.44;51.40;101923.19;5085945;28;20100;-60
2022/06/04 11:39:19;;;;;;;7.25;5.15;;;;;;;19.47;51.40;101911.78;5083781;28;20064;-59
2022/06/04 11:41:56;;;;;;;6.65;4.28;;;;;;;19.54;51.56;101915.16;5078200;28;20076;-59
2022/06/04 11:44:39;;;;;;;7.10;4.72;;;;;;;19.60;51.34;101899.69;5084492;28;20071;-59
2022/06/04 11:47:21;;;;;;;12.48;4.72;;;;;;;19.68;51.94;101907.41;5084578;28;20055;-59
2022/06/04 11:49:58;;;;;;;8.52;5.07;;;;;;;19.75;51.40;101895.19;5068278;28;20045;-59
2022/06/04 11:52:28;;;;;;;8.93;4.85;;;;;;;19.79;51.05;101892.78;5082904;28;20121;-59
2022/06/04 11:55:13;;;;;;;9.05;5.15;;;;;;;19.78;50.81;101888.41;5084612;28;20074;-59
2022/06/04 11:57:52;;;;;;;9.27;4.93;;;;;;;19.82;50.87;101897.72;5072995;28;20040;-60